EZY3XX ESSA-EDDB
Flight info
| Callsign | EZY3XX |
|---|---|
| Flight time | 1h 21m |
| Altitude | 34000 |
| Route | PETEV N872 ELPAX DCT BIKRU DCT RODEP T280 KETAP KETAP1L |
| Aircraft | A20N/M-SDE2E3FGHIRWXY/LB1 |
Departure
| Time | 2026-05-04 10:16 |
|---|---|
| Airport | Stockholm-Arlanda Airport (ESSA) |
Arrival
| Time | 2026-05-04 11:37 |
|---|---|
| Airport | Berlin Brandenburg Airport (EDDB) |
| Time | Latitude | Longitude | Altitude | Speed | Heading |
|---|---|---|---|---|---|
| 2026-05-04 10:00 | 59.64340 | 17.92869 | 141 ft | 0 kts | 36° |
| 2026-05-04 10:08 | 59.64293 | 17.92804 | 141 ft | 4 kts | 36° |
| 2026-05-04 10:08 | 59.64271 | 17.92773 | 141 ft | 4 kts | 36° |
| 2026-05-04 10:08 | 59.64253 | 17.92748 | 141 ft | 4 kts | 39° |
| 2026-05-04 10:08 | 59.64238 | 17.92711 | 141 ft | 4 kts | 80° |
| 2026-05-04 10:09 | 59.64241 | 17.92663 | 141 ft | 4 kts | 119° |
| 2026-05-04 10:09 | 59.64255 | 17.92619 | 141 ft | 4 kts | 120° |
| 2026-05-04 10:09 | 59.64259 | 17.92607 | 141 ft | 0 kts | 116° |
| 2026-05-04 10:11 | 59.64256 | 17.92617 | 141 ft | 5 kts | 117° |
| 2026-05-04 10:12 | 59.64221 | 17.92754 | 141 ft | 14 kts | 116° |
| 2026-05-04 10:12 | 59.64177 | 17.92873 | 141 ft | 5 kts | 182° |
| 2026-05-04 10:12 | 59.64135 | 17.92829 | 141 ft | 10 kts | 238° |
| 2026-05-04 10:12 | 59.64157 | 17.92663 | 141 ft | 17 kts | 299° |
| 2026-05-04 10:13 | 59.64221 | 17.92419 | 141 ft | 23 kts | 297° |
| 2026-05-04 10:13 | 59.64311 | 17.92123 | 141 ft | 26 kts | 326° |
| 2026-05-04 10:13 | 59.64492 | 17.92127 | 141 ft | 28 kts | 9° |
| 2026-05-04 10:13 | 59.64715 | 17.92202 | 141 ft | 38 kts | 9° |
| 2026-05-04 10:14 | 59.65002 | 17.92308 | 141 ft | 44 kts | 11° |
| 2026-05-04 10:14 | 59.65308 | 17.92361 | 141 ft | 44 kts | 338° |
| 2026-05-04 10:16 | 59.62835 | 17.90943 | 1324 ft | 223 kts | 194° |
| 2026-05-04 10:16 | 59.61242 | 17.90128 | 2259 ft | 239 kts | 208° |
| 2026-05-04 10:16 | 59.60100 | 17.87937 | 3738 ft | 225 kts | 240° |
| 2026-05-04 10:16 | 59.59403 | 17.85249 | 5316 ft | 216 kts | 245° |
| 2026-05-04 10:17 | 59.58767 | 17.82583 | 6676 ft | 214 kts | 246° |
| 2026-05-04 10:17 | 59.58131 | 17.79853 | 7724 ft | 228 kts | 246° |
| 2026-05-04 10:19 | 59.49542 | 17.59234 | 14726 ft | 313 kts | 229° |
| 2026-05-04 10:19 | 59.48017 | 17.56137 | 15816 ft | 317 kts | 229° |
| 2026-05-04 10:19 | 59.46470 | 17.52995 | 16888 ft | 321 kts | 229° |
| 2026-05-04 10:19 | 59.44906 | 17.49820 | 17928 ft | 325 kts | 229° |
| 2026-05-04 10:20 | 59.43323 | 17.46607 | 18834 ft | 329 kts | 229° |
| 2026-05-04 10:20 | 59.41722 | 17.43363 | 19733 ft | 332 kts | 229° |
| 2026-05-04 10:20 | 59.40106 | 17.40093 | 20654 ft | 335 kts | 229° |
| 2026-05-04 10:20 | 59.38472 | 17.36791 | 21563 ft | 338 kts | 229° |
| 2026-05-04 10:21 | 59.36821 | 17.33460 | 22455 ft | 342 kts | 229° |
| 2026-05-04 10:21 | 59.35177 | 17.30147 | 23284 ft | 345 kts | 228° |
| 2026-05-04 10:21 | 59.33494 | 17.26760 | 23951 ft | 349 kts | 228° |
| 2026-05-04 10:21 | 59.31793 | 17.23341 | 24601 ft | 352 kts | 228° |
| 2026-05-04 10:22 | 59.28337 | 17.16414 | 25871 ft | 359 kts | 228° |
| 2026-05-04 10:22 | 59.26584 | 17.12909 | 26490 ft | 362 kts | 228° |
| 2026-05-04 10:22 | 59.24819 | 17.09384 | 27090 ft | 365 kts | 228° |
| 2026-05-04 10:23 | 59.23034 | 17.05827 | 27696 ft | 368 kts | 228° |
| 2026-05-04 10:23 | 59.21227 | 17.02267 | 28259 ft | 371 kts | 227° |
| 2026-05-04 10:25 | 59.07107 | 16.79108 | 32052 ft | 378 kts | 223° |
| 2026-05-04 10:25 | 59.05083 | 16.75854 | 32598 ft | 377 kts | 224° |
| 2026-05-04 10:25 | 59.03066 | 16.72609 | 33131 ft | 376 kts | 224° |
| 2026-05-04 10:25 | 59.01053 | 16.69369 | 33593 ft | 377 kts | 224° |
| 2026-05-04 10:26 | 58.99017 | 16.66092 | 33719 ft | 385 kts | 224° |
| 2026-05-04 10:26 | 58.94780 | 16.59278 | 33732 ft | 406 kts | 223° |
| 2026-05-04 10:27 | 58.90337 | 16.52175 | 34040 ft | 413 kts | 223° |
| 2026-05-04 10:27 | 58.88161 | 16.48742 | 35139 ft | 395 kts | 223° |
| 2026-05-04 10:27 | 58.86065 | 16.45478 | 36201 ft | 378 kts | 223° |
| 2026-05-04 10:27 | 58.84077 | 16.42426 | 37216 ft | 362 kts | 222° |
| 2026-05-04 10:28 | 58.82139 | 16.39501 | 38209 ft | 346 kts | 221° |
| 2026-05-04 10:28 | 58.80272 | 16.36737 | 38976 ft | 331 kts | 221° |
| 2026-05-04 10:28 | 58.78472 | 16.34128 | 39645 ft | 316 kts | 220° |
| 2026-05-04 10:28 | 58.76736 | 16.31676 | 40249 ft | 303 kts | 220° |
| 2026-05-04 10:29 | 58.75058 | 16.29378 | 40772 ft | 290 kts | 219° |
| 2026-05-04 10:29 | 58.73432 | 16.27233 | 41212 ft | 277 kts | 218° |
| 2026-05-04 10:29 | 58.71851 | 16.25242 | 41555 ft | 266 kts | 217° |
| 2026-05-04 10:29 | 58.70303 | 16.23400 | 41769 ft | 259 kts | 216° |
| 2026-05-04 10:30 | 58.68748 | 16.21648 | 41672 ft | 261 kts | 214° |
| 2026-05-04 10:30 | 58.67137 | 16.19913 | 41437 ft | 269 kts | 213° |
| 2026-05-04 10:30 | 58.65475 | 16.18196 | 41353 ft | 271 kts | 213° |
| 2026-05-04 10:30 | 58.63816 | 16.16548 | 41495 ft | 265 kts | 212° |
| 2026-05-04 10:31 | 58.62192 | 16.14987 | 41628 ft | 259 kts | 211° |
| 2026-05-04 10:31 | 58.60570 | 16.13459 | 41527 ft | 261 kts | 211° |
| 2026-05-04 10:32 | 58.50692 | 16.04128 | 41189 ft | 266 kts | 213° |
| 2026-05-04 10:33 | 58.49057 | 16.02450 | 41152 ft | 266 kts | 214° |
| 2026-05-04 10:33 | 58.47464 | 16.00749 | 41287 ft | 259 kts | 215° |
| 2026-05-04 10:33 | 58.45923 | 15.99033 | 41366 ft | 254 kts | 216° |
| 2026-05-04 10:33 | 58.44430 | 15.97281 | 41245 ft | 258 kts | 217° |
| 2026-05-04 10:34 | 58.42914 | 15.95385 | 41080 ft | 262 kts | 219° |
| 2026-05-04 10:34 | 58.41423 | 15.93389 | 41083 ft | 260 kts | 221° |
| 2026-05-04 10:34 | 58.39994 | 15.91340 | 41222 ft | 253 kts | 223° |
| 2026-05-04 10:34 | 58.38636 | 15.89240 | 41183 ft | 255 kts | 224° |
| 2026-05-04 10:35 | 58.37421 | 15.86508 | 39941 ft | 296 kts | 243° |
| 2026-05-04 10:35 | 58.36249 | 15.82986 | 39124 ft | 329 kts | 233° |
| 2026-05-04 10:35 | 58.34677 | 15.79557 | 38477 ft | 359 kts | 230° |
| 2026-05-04 10:35 | 58.32880 | 15.76020 | 37661 ft | 381 kts | 229° |
| 2026-05-04 10:36 | 58.31007 | 15.72395 | 36828 ft | 386 kts | 229° |
| 2026-05-04 10:36 | 58.29140 | 15.68711 | 36046 ft | 388 kts | 230° |
| 2026-05-04 10:36 | 58.27291 | 15.64957 | 35279 ft | 389 kts | 230° |
| 2026-05-04 10:36 | 58.25469 | 15.61163 | 34545 ft | 389 kts | 231° |
| 2026-05-04 10:37 | 58.23669 | 15.57357 | 34002 ft | 384 kts | 231° |
| 2026-05-04 10:37 | 58.21914 | 15.53618 | 33780 ft | 375 kts | 232° |
| 2026-05-04 10:37 | 58.18515 | 15.46360 | 33742 ft | 364 kts | 232° |
| 2026-05-04 10:39 | 58.07358 | 15.27090 | 33753 ft | 377 kts | 209° |
| 2026-05-04 10:39 | 58.04851 | 15.25530 | 33751 ft | 380 kts | 202° |
| 2026-05-04 10:40 | 57.99697 | 15.23378 | 33746 ft | 379 kts | 199° |
| 2026-05-04 10:40 | 57.94512 | 15.21543 | 33758 ft | 379 kts | 198° |
| 2026-05-04 10:41 | 57.90211 | 15.20008 | 33755 ft | 379 kts | 198° |
| 2026-05-04 10:41 | 57.85042 | 15.18106 | 33757 ft | 378 kts | 199° |
| 2026-05-04 10:42 | 57.79876 | 15.16176 | 33763 ft | 379 kts | 199° |
| 2026-05-04 10:42 | 57.74707 | 15.14246 | 33761 ft | 379 kts | 199° |
| 2026-05-04 10:43 | 57.69539 | 15.12325 | 33766 ft | 379 kts | 199° |
| 2026-05-04 10:45 | 57.48849 | 15.04695 | 33781 ft | 379 kts | 198° |
| 2026-05-04 10:45 | 57.43712 | 15.02814 | 33787 ft | 379 kts | 198° |
| 2026-05-04 10:46 | 57.38532 | 15.00922 | 33786 ft | 383 kts | 198° |
| 2026-05-04 10:46 | 57.35882 | 14.99945 | 33787 ft | 394 kts | 198° |
| 2026-05-04 10:46 | 57.33146 | 14.98935 | 33792 ft | 406 kts | 198° |
| 2026-05-04 10:46 | 57.30337 | 14.97903 | 33792 ft | 417 kts | 198° |
| 2026-05-04 10:47 | 57.27452 | 14.96851 | 33790 ft | 426 kts | 197° |
| 2026-05-04 10:47 | 57.21622 | 14.94762 | 33802 ft | 427 kts | 197° |
| 2026-05-04 10:49 | 56.98289 | 14.86417 | 33827 ft | 428 kts | 197° |
| 2026-05-04 10:50 | 56.92449 | 14.84338 | 33824 ft | 428 kts | 197° |
| 2026-05-04 10:52 | 56.69037 | 14.76071 | 33829 ft | 429 kts | 197° |
| 2026-05-04 10:52 | 56.63177 | 14.74018 | 33828 ft | 429 kts | 197° |
| 2026-05-04 10:54 | 56.39721 | 14.65867 | 33840 ft | 430 kts | 197° |
| 2026-05-04 10:56 | 56.16038 | 14.58418 | 33854 ft | 433 kts | 195° |
| 2026-05-04 10:57 | 56.10100 | 14.56570 | 33857 ft | 434 kts | 195° |
| 2026-05-04 10:57 | 56.04152 | 14.54727 | 33862 ft | 433 kts | 195° |
| 2026-05-04 10:58 | 55.98204 | 14.52887 | 33864 ft | 434 kts | 195° |
| 2026-05-04 10:58 | 55.92253 | 14.51052 | 33859 ft | 434 kts | 195° |
| 2026-05-04 10:59 | 55.86289 | 14.49219 | 33862 ft | 435 kts | 195° |
| 2026-05-04 10:59 | 55.80319 | 14.47390 | 33864 ft | 435 kts | 195° |
| 2026-05-04 11:00 | 55.74344 | 14.45565 | 33868 ft | 436 kts | 195° |
| 2026-05-04 11:02 | 55.50396 | 14.38307 | 33887 ft | 437 kts | 194° |
| 2026-05-04 11:05 | 55.05249 | 14.25541 | 33918 ft | 441 kts | 190° |
| 2026-05-04 11:06 | 54.99133 | 14.24496 | 33920 ft | 442 kts | 190° |
| 2026-05-04 11:06 | 54.93014 | 14.23474 | 33926 ft | 442 kts | 190° |
| 2026-05-04 11:10 | 54.50191 | 14.16458 | 33953 ft | 442 kts | 189° |
| 2026-05-04 11:12 | 54.25689 | 14.12512 | 33954 ft | 442 kts | 189° |
| 2026-05-04 11:12 | 54.22623 | 14.12022 | 33834 ft | 441 kts | 189° |
| 2026-05-04 11:12 | 54.19575 | 14.11535 | 33572 ft | 442 kts | 189° |
| 2026-05-04 11:13 | 54.16507 | 14.11044 | 33297 ft | 443 kts | 189° |
| 2026-05-04 11:13 | 54.13432 | 14.10554 | 33027 ft | 444 kts | 189° |
| 2026-05-04 11:13 | 54.10357 | 14.10065 | 32757 ft | 444 kts | 189° |
| 2026-05-04 11:13 | 54.07274 | 14.09575 | 32492 ft | 445 kts | 189° |
| 2026-05-04 11:14 | 54.00049 | 14.08431 | 31888 ft | 447 kts | 189° |
| 2026-05-04 11:16 | 53.76186 | 14.04679 | 29963 ft | 452 kts | 188° |
| 2026-05-04 11:16 | 53.73048 | 14.04189 | 29664 ft | 453 kts | 188° |
| 2026-05-04 11:16 | 53.69922 | 14.03703 | 28912 ft | 452 kts | 188° |
| 2026-05-04 11:17 | 53.66786 | 14.03214 | 28025 ft | 454 kts | 188° |
| 2026-05-04 11:17 | 53.63626 | 14.02721 | 27421 ft | 457 kts | 188° |
| 2026-05-04 11:19 | 53.41322 | 13.99275 | 22493 ft | 460 kts | 188° |
| 2026-05-04 11:19 | 53.38149 | 13.98790 | 21782 ft | 456 kts | 188° |
| 2026-05-04 11:19 | 53.35008 | 13.98309 | 21074 ft | 451 kts | 188° |
| 2026-05-04 11:19 | 53.31897 | 13.97833 | 20357 ft | 446 kts | 188° |
| 2026-05-04 11:20 | 53.28822 | 13.97364 | 19656 ft | 442 kts | 188° |
| 2026-05-04 11:20 | 53.25773 | 13.96899 | 18937 ft | 436 kts | 188° |
| 2026-05-04 11:20 | 53.22805 | 13.96449 | 18377 ft | 418 kts | 188° |
| 2026-05-04 11:20 | 53.19981 | 13.96023 | 17960 ft | 397 kts | 188° |
| 2026-05-04 11:22 | 53.02448 | 13.93363 | 13489 ft | 334 kts | 189° |
| 2026-05-04 11:22 | 53.00157 | 13.93017 | 12938 ft | 327 kts | 189° |
| 2026-05-04 11:23 | 52.97942 | 13.92681 | 12437 ft | 321 kts | 189° |
| 2026-05-04 11:23 | 52.95705 | 13.92343 | 11909 ft | 316 kts | 189° |
| 2026-05-04 11:24 | 52.83355 | 13.90497 | 9910 ft | 267 kts | 189° |
| 2026-05-04 11:25 | 52.81508 | 13.90218 | 9513 ft | 266 kts | 189° |
| 2026-05-04 11:25 | 52.79674 | 13.89940 | 9130 ft | 263 kts | 189° |
| 2026-05-04 11:25 | 52.77859 | 13.89668 | 8771 ft | 261 kts | 189° |
| 2026-05-04 11:26 | 52.74278 | 13.89132 | 8048 ft | 256 kts | 189° |
| 2026-05-04 11:27 | 52.61859 | 13.86920 | 5515 ft | 263 kts | 188° |
| 2026-05-04 11:28 | 52.60033 | 13.86698 | 5116 ft | 262 kts | 187° |
| 2026-05-04 11:28 | 52.58862 | 13.86582 | 4998 ft | 252 kts | 186° |
| 2026-05-04 11:28 | 52.57161 | 13.86434 | 4862 ft | 238 kts | 186° |
| 2026-05-04 11:28 | 52.55540 | 13.86303 | 4659 ft | 230 kts | 186° |
| 2026-05-04 11:29 | 52.53961 | 13.86136 | 4416 ft | 224 kts | 187° |
| 2026-05-04 11:29 | 52.52429 | 13.85946 | 4109 ft | 218 kts | 188° |
| 2026-05-04 11:29 | 52.50928 | 13.85757 | 3839 ft | 216 kts | 187° |
| 2026-05-04 11:29 | 52.49431 | 13.85569 | 3554 ft | 214 kts | 188° |
| 2026-05-04 11:31 | 52.42363 | 13.79860 | 2986 ft | 122 kts | 249° |
| 2026-05-04 11:33 | 52.40221 | 13.70826 | 2558 ft | 121 kts | 249° |
| 2026-05-04 11:33 | 52.39916 | 13.69545 | 2554 ft | 121 kts | 250° |
| 2026-05-04 11:33 | 52.39611 | 13.68261 | 2549 ft | 121 kts | 250° |
| 2026-05-04 11:34 | 52.39302 | 13.66952 | 2300 ft | 124 kts | 249° |
| 2026-05-04 11:34 | 52.38996 | 13.65642 | 1927 ft | 125 kts | 249° |
| 2026-05-04 11:34 | 52.38689 | 13.64348 | 1724 ft | 120 kts | 249° |
| 2026-05-04 11:34 | 52.38388 | 13.63079 | 1551 ft | 119 kts | 250° |
| 2026-05-04 11:35 | 52.38090 | 13.61813 | 1394 ft | 119 kts | 249° |
| 2026-05-04 11:35 | 52.37796 | 13.60564 | 1230 ft | 119 kts | 249° |
| 2026-05-04 11:35 | 52.37687 | 13.60106 | 1176 ft | 119 kts | 250° |
| 2026-05-04 11:35 | 52.37388 | 13.58844 | 1020 ft | 119 kts | 249° |
| 2026-05-04 11:36 | 52.37090 | 13.57591 | 846 ft | 118 kts | 250° |
| 2026-05-04 11:36 | 52.36765 | 13.56342 | 718 ft | 120 kts | 246° |
| 2026-05-04 11:36 | 52.36445 | 13.55079 | 564 ft | 122 kts | 250° |
| 2026-05-04 11:36 | 52.36166 | 13.53786 | 406 ft | 119 kts | 252° |
| 2026-05-04 11:37 | 52.35896 | 13.52522 | 259 ft | 116 kts | 250° |
| 2026-05-04 11:37 | 52.35613 | 13.51378 | 162 ft | 97 kts | 249° |
| 2026-05-04 11:37 | 52.35489 | 13.50822 | 163 ft | 21 kts | 248° |
| 2026-05-04 11:37 | 52.35434 | 13.50515 | 161 ft | 26 kts | 290° |
| 2026-05-04 11:38 | 52.35575 | 13.50518 | 150 ft | 37 kts | 30° |
| 2026-05-04 11:38 | 52.35808 | 13.50730 | 153 ft | 35 kts | 30° |
| 2026-05-04 11:38 | 52.35940 | 13.50923 | 159 ft | 24 kts | 70° |
| 2026-05-04 11:38 | 52.36001 | 13.51177 | 158 ft | 25 kts | 67° |
| 2026-05-04 11:39 | 52.36047 | 13.51344 | 159 ft | 3 kts | 33° |
| 2026-05-04 11:39 | 52.36077 | 13.51326 | 158 ft | 11 kts | 340° |
| 2026-05-04 11:40 | 52.36123 | 13.51298 | 158 ft | 0 kts | 338° |